Scroll down
FLIGHT INFORMATION
PMDG Flight Operations

PFO3621

Diverted

KRFD
 KONT
[Original Destination: KONT ]
DATE: 2020-06-10
GATE:  -
GATE DEPARTURE: 22:29
TAKEOFF: 22:34
DATE: 2020-06-11
GATE:  -
LANDING: 02:13
GATE ARRIVAL: 02:16
FLIGHT DATA
Crew: 
Speed: 
473 kts
Altitude: 
38,049 ft
Stage Length: 
1,202.3 nm
Block Time: 
3.8 hrs
Flight Time: 
3.7 hrs
Fuel Used: 
20,114 lb
Cleared Route: 
TRACK DATA
50,000 ft 1,000 kts
AIRCRAFT INFO AND CUMULATIVE STATS
Aircraft Type: 
B738BW
Registration: 
SELCAL: 
MSN/LN: 
0 / 1
Total Flights: 
13
Total Block Time: 
27.1 hrs
Total Flight Time: 
24.3 hrs
Total Fuel Time: 
168,735 lb
DATALINK LOG | Newest first | Current as of: 2020-11-27 19:47:46
LABEL SEQUENCE CONTENT Dn/Up
QD033402:16 6.5▼ Dn
QC593002:13▼ Dn
2U1044KONT 102153Z 23009KT 10SM CLR 38/M08 A2991 RMK AO2 SLP107 FU DSNT S-W T03831078▲ Up
2U1043KLAX 102153Z 26012KT 10SM FEW100 28/04 A2992 RMK AO2 SLP129 FU FEW100 T02830044 $▲ Up
2S1043KONT KLAX▼ Dn
GA1043ADVANCED GATE ASSIGNMENTS NOT YET AVAILABLE AT THIS AIRPORT▲ Up
GR1043KONT 02:13 HI-VAL NO DIPL/VIP NO▼ Dn
2U4839KONT 102053Z 22009KT 10SM FEW020 37/M09 A2993 RMK AO2 SLP113 FU FEW020 FU DSNT S-W T03721094 58017▲ Up
2S4821KONT▼ Dn
QB210322:34▼ Dn
QA155922:29 26.5▼ Dn
2U0449KONT 101853Z 26007KT 10SM CLR 35/M07 A2996 RMK AO2 SLP125 FU DSNT SW T03501067▲ Up
2U0449KLAX 101853Z 25009KT 10SM FEW090 SCT160 28/11 A2994 RMK AO2 SLP137 FU FEW090 T02830106 $▲ Up
2U0448KRFD 101854Z 24018G29KT 10SM SCT042 26/14 A2949 RMK AO2 PK WND 24029/1854 SLP981 T02560144▲ Up
2S0448KRFD KONT KLAX▼ Dn
A30448CLEARED TO KPHX VIA KRFD KONT SOO3621 N738BW . SQUAWK 2545.▲ Up
B30448KRFD KONT SOO3621 N738BW ▼ Dn
A30246CLEARED TO KPHX VIA KRFD KONT SOO3621 N738BW . SQUAWK 1707.▲ Up
B30246KRFD KONT SOO3621 N738BW ▼ Dn
Q00044[LINK ACK]▲ Up
Q00044[LINK TEST]▼ Dn


AIRCRAFT HISTORY
FLIGHT DATE FLIGHT NO. ORIGIN DESTINATION CLEARED ROUTE BLOCK TIME FLIGHT TIME FUEL USED PILOT
2020-08-09PFO809KPHX KSJC KPHX HRRBR CURIV DECAS BOILE AVE MAKRS TROXX KSJC2.1 hrs1.6 hrs11,122 lbKurt Kalbfleisch
2020-08-09PFO809KSFO KPHX KSFO LOSHN BOILE BLH KPHX2.4 hrs1.6 hrs38,055 lbKurt Kalbfleisch
2020-07-11PFO711KSJC KSFO KSJC HEMAN RW28L0.4 hrs0.2 hrs1,375 lbKyle Weber
2020-07-03PFO702KBUR KSJC KBUR TILLR OROSZ BRRKK MDWAY COREZ MAKRS TROXX SILCN VLLEY GUUYY WLSSN GSTEE KLIDE JENES RW30L1.3 hrs1 hrs6,577 lbKyle Weber
2020-06-27PFO627KPSP KBUR KPSP GARNE LAX RW080.7 hrs0.5 hrs3,420 lbKyle Weber
2020-06-19PFO619KLAX KPSP KLAX SLI TUSTI HEMET TRM KPSP0.7 hrs0.5 hrs3,599 lbKyle Weber
2020-06-14PFO614KONT KLAX KONT MERCE RW24R0.6 hrs0.2 hrs2,071 lbKyle Weber
2020-06-10PFO3621KRFD KONT 3.8 hrs3.7 hrs20,114 lbAllan Burek
2020-06-10PFO3605KTPA KRFD KTPA LACEN BRUTS JAMIZ JOHNN ATL BWG TTH JOT QUOTE KRFD2.4 hrs2.2 hrs12,612 lbAllan Burek
2020-06-09PFO3627KPDX KTPA KPDX PEGTY KELYY WANOS TOSEH WHAMY IMB DNJ DBS MBW HLC ICT RZC LIT IVLUH HEVVN KTPA5.3 hrs5 hrs26,756 lbAllan Burek
2020-02-08PFO3609KIAH KPDX 4.6 hrs4.3 hrs23,288 lbAllan Burek
2020-02-07PFO3607KTPA KIAH 2.5 hrs2.2 hrs12,680 lbAllan Burek
2020-02-07PFO3605KATL KTPA 1.6 hrs1.4 hrs7,067 lbAllan Burek